sensor_id;sensor_type;location;lat;lon;timestamp;P1;durP1;ratioP1;P2;durP2;ratioP2
41043;SDS011;51680;49.806;18.774;2022-09-30T00:01:33;21.20;;;12.18;;
41043;SDS011;51680;49.806;18.774;2022-09-30T00:04:35;26.17;;;15.35;;
41043;SDS011;51680;49.806;18.774;2022-09-30T00:07:38;26.08;;;16.60;;
41043;SDS011;51680;49.806;18.774;2022-09-30T00:10:40;32.10;;;16.67;;
41043;SDS011;51680;49.806;18.774;2022-09-30T00:13:42;26.75;;;15.90;;
41043;SDS011;51680;49.806;18.774;2022-09-30T00:16:46;29.15;;;17.67;;
41043;SDS011;51680;49.806;18.774;2022-09-30T00:19:48;31.87;;;18.30;;
41043;SDS011;51680;49.806;18.774;2022-09-30T00:22:50;34.45;;;18.25;;
41043;SDS011;51680;49.806;18.774;2022-09-30T00:25:56;32.38;;;19.00;;
41043;SDS011;51680;49.806;18.774;2022-09-30T00:28:58;36.88;;;21.30;;
41043;SDS011;51680;49.806;18.774;2022-09-30T00:32:03;38.15;;;21.08;;
41043;SDS011;51680;49.806;18.774;2022-09-30T00:35:05;31.30;;;19.87;;
41043;SDS011;51680;49.806;18.774;2022-09-30T00:38:07;34.65;;;20.70;;
41043;SDS011;51680;49.806;18.774;2022-09-30T00:41:09;38.17;;;20.35;;
41043;SDS011;51680;49.806;18.774;2022-09-30T00:47:47;37.03;;;21.03;;
41043;SDS011;51680;49.806;18.774;2022-09-30T00:50:52;34.53;;;20.48;;
41043;SDS011;51680;49.806;18.774;2022-09-30T00:53:55;39.15;;;22.58;;
41043;SDS011;51680;49.806;18.774;2022-09-30T00:57:00;38.33;;;20.77;;
41043;SDS011;51680;49.806;18.774;2022-09-30T01:03:08;37.05;;;23.15;;
41043;SDS011;51680;49.806;18.774;2022-09-30T01:06:09;38.20;;;22.98;;
41043;SDS011;51680;49.806;18.774;2022-09-30T01:09:11;38.72;;;21.90;;
41043;SDS011;51680;49.806;18.774;2022-09-30T01:12:14;38.92;;;22.52;;
41043;SDS011;51680;49.806;18.774;2022-09-30T01:15:20;37.03;;;22.20;;
41043;SDS011;51680;49.806;18.774;2022-09-30T01:18:34;39.00;;;22.83;;
41043;SDS011;51680;49.806;18.774;2022-09-30T01:25:43;37.55;;;22.45;;
41043;SDS011;51680;49.806;18.774;2022-09-30T01:29:08;34.40;;;20.77;;
41043;SDS011;51680;49.806;18.774;2022-09-30T01:32:30;40.22;;;22.08;;
41043;SDS011;51680;49.806;18.774;2022-09-30T01:35:55;36.22;;;22.05;;
41043;SDS011;51680;49.806;18.774;2022-09-30T01:39:11;36.70;;;21.80;;
41043;SDS011;51680;49.806;18.774;2022-09-30T01:42:32;32.42;;;20.20;;
41043;SDS011;51680;49.806;18.774;2022-09-30T01:45:41;37.78;;;21.90;;
41043;SDS011;51680;49.806;18.774;2022-09-30T01:48:49;38.80;;;21.58;;
41043;SDS011;51680;49.806;18.774;2022-09-30T01:51:57;33.15;;;20.35;;
41043;SDS011;51680;49.806;18.774;2022-09-30T01:55:05;35.25;;;19.80;;
41043;SDS011;51680;49.806;18.774;2022-09-30T01:58:13;36.35;;;21.17;;
41043;SDS011;51680;49.806;18.774;2022-09-30T02:01:21;36.97;;;21.25;;
41043;SDS011;51680;49.806;18.774;2022-09-30T02:04:30;33.67;;;20.30;;
41043;SDS011;51680;49.806;18.774;2022-09-30T02:07:38;35.85;;;21.70;;
41043;SDS011;51680;49.806;18.774;2022-09-30T02:10:45;33.92;;;20.60;;
41043;SDS011;51680;49.806;18.774;2022-09-30T02:13:56;36.67;;;21.35;;
41043;SDS011;51680;49.806;18.774;2022-09-30T02:17:05;31.45;;;19.52;;
41043;SDS011;51680;49.806;18.774;2022-09-30T02:20:16;34.47;;;20.20;;
41043;SDS011;51680;49.806;18.774;2022-09-30T02:23:24;33.60;;;20.83;;
41043;SDS011;51680;49.806;18.774;2022-09-30T02:26:38;35.92;;;21.10;;
41043;SDS011;51680;49.806;18.774;2022-09-30T02:29:42;34.65;;;20.50;;
41043;SDS011;51680;49.806;18.774;2022-09-30T02:32:49;30.52;;;18.95;;
41043;SDS011;51680;49.806;18.774;2022-09-30T02:35:58;31.98;;;18.83;;
41043;SDS011;51680;49.806;18.774;2022-09-30T02:39:06;28.95;;;17.38;;
41043;SDS011;51680;49.806;18.774;2022-09-30T02:42:13;34.88;;;19.83;;
41043;SDS011;51680;49.806;18.774;2022-09-30T02:45:20;32.40;;;19.63;;
41043;SDS011;51680;49.806;18.774;2022-09-30T02:48:25;32.20;;;19.70;;
41043;SDS011;51680;49.806;18.774;2022-09-30T02:51:34;31.63;;;19.60;;
41043;SDS011;51680;49.806;18.774;2022-09-30T02:54:46;30.52;;;17.55;;
41043;SDS011;51680;49.806;18.774;2022-09-30T02:57:58;30.83;;;18.27;;
41043;SDS011;51680;49.806;18.774;2022-09-30T03:01:04;31.60;;;19.15;;
41043;SDS011;51680;49.806;18.774;2022-09-30T03:04:07;28.65;;;18.30;;
41043;SDS011;51680;49.806;18.774;2022-09-30T03:10:15;35.90;;;18.83;;
41043;SDS011;51680;49.806;18.774;2022-09-30T03:13:24;33.28;;;20.48;;
41043;SDS011;51680;49.806;18.774;2022-09-30T03:16:39;41.33;;;19.55;;
41043;SDS011;51680;49.806;18.774;2022-09-30T03:20:15;27.92;;;18.52;;
41043;SDS011;51680;49.806;18.774;2022-09-30T03:23:41;27.50;;;18.50;;
41043;SDS011;51680;49.806;18.774;2022-09-30T03:26:59;47.60;;;18.73;;
41043;SDS011;51680;49.806;18.774;2022-09-30T03:30:12;67.50;;;19.02;;
41043;SDS011;51680;49.806;18.774;2022-09-30T03:33:18;89.43;;;19.75;;
41043;SDS011;51680;49.806;18.774;2022-09-30T03:36:26;51.72;;;18.55;;
41043;SDS011;51680;49.806;18.774;2022-09-30T03:39:38;61.67;;;20.63;;
41043;SDS011;51680;49.806;18.774;2022-09-30T03:42:53;44.13;;;19.25;;
41043;SDS011;51680;49.806;18.774;2022-09-30T03:46:00;42.47;;;18.85;;
41043;SDS011;51680;49.806;18.774;2022-09-30T03:49:07;73.38;;;21.13;;
41043;SDS011;51680;49.806;18.774;2022-09-30T03:52:12;61.45;;;20.27;;
41043;SDS011;51680;49.806;18.774;2022-09-30T03:55:17;161.55;;;23.20;;
41043;SDS011;51680;49.806;18.774;2022-09-30T03:58:21;189.90;;;22.92;;
41043;SDS011;51680;49.806;18.774;2022-09-30T04:01:23;171.10;;;21.80;;
41043;SDS011;51680;49.806;18.774;2022-09-30T04:04:25;73.43;;;19.23;;
41043;SDS011;51680;49.806;18.774;2022-09-30T04:07:27;249.48;;;23.15;;
41043;SDS011;51680;49.806;18.774;2022-09-30T04:10:30;368.02;;;24.40;;
41043;SDS011;51680;49.806;18.774;2022-09-30T04:13:32;268.08;;;23.25;;
41043;SDS011;51680;49.806;18.774;2022-09-30T04:16:34;403.63;;;29.00;;
41043;SDS011;51680;49.806;18.774;2022-09-30T04:19:35;248.55;;;23.60;;
41043;SDS011;51680;49.806;18.774;2022-09-30T04:22:39;415.65;;;27.45;;
41043;SDS011;51680;49.806;18.774;2022-09-30T04:25:42;510.30;;;29.75;;
41043;SDS011;51680;49.806;18.774;2022-09-30T04:28:44;335.13;;;26.67;;
41043;SDS011;51680;49.806;18.774;2022-09-30T04:31:46;249.75;;;23.30;;
41043;SDS011;51680;49.806;18.774;2022-09-30T04:34:48;172.48;;;22.55;;
41043;SDS011;51680;49.806;18.774;2022-09-30T04:37:50;455.63;;;27.25;;
41043;SDS011;51680;49.806;18.774;2022-09-30T04:40:53;283.20;;;23.25;;
41043;SDS011;51680;49.806;18.774;2022-09-30T04:43:55;181.20;;;22.48;;
41043;SDS011;51680;49.806;18.774;2022-09-30T04:46:57;157.32;;;22.08;;
41043;SDS011;51680;49.806;18.774;2022-09-30T04:50:00;291.80;;;24.38;;
41043;SDS011;51680;49.806;18.774;2022-09-30T04:53:01;235.45;;;23.88;;
41043;SDS011;51680;49.806;18.774;2022-09-30T04:56:05;80.00;;;20.92;;
41043;SDS011;51680;49.806;18.774;2022-09-30T04:59:07;30.45;;;19.85;;
41043;SDS011;51680;49.806;18.774;2022-09-30T05:02:09;62.22;;;20.58;;
41043;SDS011;51680;49.806;18.774;2022-09-30T05:05:12;89.50;;;20.70;;
41043;SDS011;51680;49.806;18.774;2022-09-30T05:08:14;151.13;;;22.42;;
41043;SDS011;51680;49.806;18.774;2022-09-30T05:11:18;42.65;;;17.52;;
41043;SDS011;51680;49.806;18.774;2022-09-30T05:14:22;44.38;;;17.30;;
41043;SDS011;51680;49.806;18.774;2022-09-30T05:17:23;104.13;;;18.80;;
41043;SDS011;51680;49.806;18.774;2022-09-30T05:20:25;76.57;;;18.40;;
41043;SDS011;51680;49.806;18.774;2022-09-30T05:23:28;62.22;;;17.20;;
41043;SDS011;51680;49.806;18.774;2022-09-30T05:26:33;85.43;;;19.25;;
41043;SDS011;51680;49.806;18.774;2022-09-30T05:29:35;65.07;;;17.83;;
41043;SDS011;51680;49.806;18.774;2022-09-30T05:32:36;151.38;;;19.95;;
41043;SDS011;51680;49.806;18.774;2022-09-30T05:35:39;180.38;;;20.13;;
41043;SDS011;51680;49.806;18.774;2022-09-30T05:38:41;129.52;;;20.70;;
41043;SDS011;51680;49.806;18.774;2022-09-30T05:41:45;65.30;;;18.42;;
41043;SDS011;51680;49.806;18.774;2022-09-30T05:44:47;78.00;;;19.17;;
41043;SDS011;51680;49.806;18.774;2022-09-30T05:47:50;27.02;;;18.00;;
41043;SDS011;51680;49.806;18.774;2022-09-30T05:50:52;40.85;;;18.85;;
41043;SDS011;51680;49.806;18.774;2022-09-30T05:53:54;35.22;;;18.10;;
41043;SDS011;51680;49.806;18.774;2022-09-30T05:56:57;41.85;;;18.92;;
41043;SDS011;51680;49.806;18.774;2022-09-30T06:00:00;52.85;;;19.30;;
41043;SDS011;51680;49.806;18.774;2022-09-30T06:03:12;45.85;;;18.58;;
41043;SDS011;51680;49.806;18.774;2022-09-30T06:06:14;39.55;;;18.27;;
41043;SDS011;51680;49.806;18.774;2022-09-30T06:09:16;27.00;;;18.10;;
41043;SDS011;51680;49.806;18.774;2022-09-30T06:12:19;43.25;;;17.98;;
41043;SDS011;51680;49.806;18.774;2022-09-30T06:15:21;25.73;;;16.00;;
41043;SDS011;51680;49.806;18.774;2022-09-30T06:18:23;24.05;;;15.63;;
41043;SDS011;51680;49.806;18.774;2022-09-30T06:21:25;32.60;;;15.65;;
41043;SDS011;51680;49.806;18.774;2022-09-30T06:24:28;23.23;;;15.40;;
41043;SDS011;51680;49.806;18.774;2022-09-30T06:27:31;31.45;;;15.73;;
41043;SDS011;51680;49.806;18.774;2022-09-30T06:30:33;21.80;;;15.10;;
41043;SDS011;51680;49.806;18.774;2022-09-30T06:33:35;20.17;;;14.38;;
41043;SDS011;51680;49.806;18.774;2022-09-30T06:36:37;20.40;;;13.23;;
41043;SDS011;51680;49.806;18.774;2022-09-30T06:39:39;17.00;;;12.57;;
41043;SDS011;51680;49.806;18.774;2022-09-30T06:42:43;18.80;;;12.95;;
41043;SDS011;51680;49.806;18.774;2022-09-30T06:45:45;19.73;;;12.73;;
41043;SDS011;51680;49.806;18.774;2022-09-30T06:48:47;18.88;;;12.68;;
41043;SDS011;51680;49.806;18.774;2022-09-30T06:51:49;17.52;;;12.95;;
41043;SDS011;51680;49.806;18.774;2022-09-30T06:54:51;16.52;;;11.88;;
41043;SDS011;51680;49.806;18.774;2022-09-30T06:57:57;16.05;;;11.52;;
41043;SDS011;51680;49.806;18.774;2022-09-30T07:00:59;14.43;;;10.48;;
41043;SDS011;51680;49.806;18.774;2022-09-30T07:04:02;14.32;;;10.52;;
41043;SDS011;51680;49.806;18.774;2022-09-30T07:07:08;16.50;;;11.18;;
41043;SDS011;51680;49.806;18.774;2022-09-30T07:10:10;17.55;;;10.88;;
41043;SDS011;51680;49.806;18.774;2022-09-30T07:13:13;19.02;;;12.00;;
41043;SDS011;51680;49.806;18.774;2022-09-30T07:16:16;15.27;;;11.03;;
41043;SDS011;51680;49.806;18.774;2022-09-30T07:19:20;16.58;;;11.57;;
41043;SDS011;51680;49.806;18.774;2022-09-30T07:22:22;14.77;;;11.27;;
41043;SDS011;51680;49.806;18.774;2022-09-30T07:25:31;14.43;;;11.02;;
41043;SDS011;51680;49.806;18.774;2022-09-30T07:28:34;16.27;;;10.60;;
41043;SDS011;51680;49.806;18.774;2022-09-30T07:31:38;15.60;;;11.05;;
41043;SDS011;51680;49.806;18.774;2022-09-30T07:34:41;16.83;;;10.45;;
41043;SDS011;51680;49.806;18.774;2022-09-30T07:37:43;16.33;;;10.15;;
41043;SDS011;51680;49.806;18.774;2022-09-30T07:40:52;16.20;;;10.50;;
41043;SDS011;51680;49.806;18.774;2022-09-30T07:43:57;15.48;;;10.80;;
41043;SDS011;51680;49.806;18.774;2022-09-30T07:46:59;18.75;;;11.57;;
41043;SDS011;51680;49.806;18.774;2022-09-30T07:50:01;16.13;;;10.88;;
41043;SDS011;51680;49.806;18.774;2022-09-30T07:53:03;15.50;;;10.88;;
41043;SDS011;51680;49.806;18.774;2022-09-30T07:56:05;17.40;;;11.18;;
41043;SDS011;51680;49.806;18.774;2022-09-30T07:59:09;20.88;;;11.45;;
41043;SDS011;51680;49.806;18.774;2022-09-30T08:02:13;15.32;;;10.90;;
41043;SDS011;51680;49.806;18.774;2022-09-30T08:05:16;15.38;;;11.30;;
41043;SDS011;51680;49.806;18.774;2022-09-30T08:08:18;15.45;;;11.32;;
41043;SDS011;51680;49.806;18.774;2022-09-30T08:11:20;18.52;;;11.50;;
41043;SDS011;51680;49.806;18.774;2022-09-30T08:14:25;16.75;;;11.73;;
41043;SDS011;51680;49.806;18.774;2022-09-30T08:17:28;15.52;;;11.52;;
41043;SDS011;51680;49.806;18.774;2022-09-30T08:20:29;17.92;;;11.63;;
41043;SDS011;51680;49.806;18.774;2022-09-30T08:23:32;16.77;;;11.35;;
41043;SDS011;51680;49.806;18.774;2022-09-30T08:26:34;15.20;;;11.15;;
41043;SDS011;51680;49.806;18.774;2022-09-30T08:29:37;16.83;;;11.45;;
41043;SDS011;51680;49.806;18.774;2022-09-30T08:32:39;16.50;;;11.07;;
41043;SDS011;51680;49.806;18.774;2022-09-30T08:35:40;15.98;;;11.43;;
41043;SDS011;51680;49.806;18.774;2022-09-30T08:38:42;20.25;;;12.77;;
41043;SDS011;51680;49.806;18.774;2022-09-30T08:41:50;16.77;;;11.35;;
41043;SDS011;51680;49.806;18.774;2022-09-30T08:45:11;16.33;;;11.43;;
41043;SDS011;51680;49.806;18.774;2022-09-30T08:48:26;23.10;;;13.15;;
41043;SDS011;51680;49.806;18.774;2022-09-30T08:51:38;17.27;;;11.57;;
41043;SDS011;51680;49.806;18.774;2022-09-30T08:54:45;18.75;;;12.18;;
41043;SDS011;51680;49.806;18.774;2022-09-30T08:57:49;15.23;;;11.20;;
41043;SDS011;51680;49.806;18.774;2022-09-30T09:00:55;16.00;;;10.88;;
41043;SDS011;51680;49.806;18.774;2022-09-30T09:04:02;20.35;;;11.27;;
41043;SDS011;51680;49.806;18.774;2022-09-30T09:07:07;17.98;;;12.07;;
41043;SDS011;51680;49.806;18.774;2022-09-30T09:10:22;17.40;;;11.88;;
41043;SDS011;51680;49.806;18.774;2022-09-30T09:13:35;17.60;;;12.63;;
41043;SDS011;51680;49.806;18.774;2022-09-30T09:16:48;20.90;;;12.60;;
41043;SDS011;51680;49.806;18.774;2022-09-30T09:19:58;27.63;;;16.42;;
41043;SDS011;51680;49.806;18.774;2022-09-30T09:23:07;19.25;;;12.45;;
41043;SDS011;51680;49.806;18.774;2022-09-30T09:26:13;18.02;;;12.68;;
41043;SDS011;51680;49.806;18.774;2022-09-30T09:29:21;17.27;;;12.35;;
41043;SDS011;51680;49.806;18.774;2022-09-30T09:32:34;18.38;;;11.77;;
41043;SDS011;51680;49.806;18.774;2022-09-30T09:35:38;20.48;;;14.68;;
41043;SDS011;51680;49.806;18.774;2022-09-30T09:38:55;18.25;;;12.35;;
41043;SDS011;51680;49.806;18.774;2022-09-30T09:42:14;17.42;;;11.88;;
41043;SDS011;51680;49.806;18.774;2022-09-30T09:45:30;16.83;;;11.73;;
41043;SDS011;51680;49.806;18.774;2022-09-30T09:48:39;16.48;;;11.07;;
41043;SDS011;51680;49.806;18.774;2022-09-30T09:51:41;18.03;;;11.17;;
41043;SDS011;51680;49.806;18.774;2022-09-30T09:54:49;14.63;;;10.50;;
41043;SDS011;51680;49.806;18.774;2022-09-30T09:58:05;20.60;;;15.48;;
41043;SDS011;51680;49.806;18.774;2022-09-30T10:01:08;18.75;;;14.25;;
41043;SDS011;51680;49.806;18.774;2022-09-30T10:04:33;14.60;;;11.35;;
41043;SDS011;51680;49.806;18.774;2022-09-30T10:07:34;15.57;;;11.60;;
41043;SDS011;51680;49.806;18.774;2022-09-30T10:10:43;17.58;;;12.38;;
41043;SDS011;51680;49.806;18.774;2022-09-30T10:13:48;16.20;;;11.20;;
41043;SDS011;51680;49.806;18.774;2022-09-30T10:16:53;21.75;;;12.40;;
41043;SDS011;51680;49.806;18.774;2022-09-30T10:20:02;16.55;;;12.00;;
41043;SDS011;51680;49.806;18.774;2022-09-30T10:23:08;18.73;;;12.20;;
41043;SDS011;51680;49.806;18.774;2022-09-30T10:26:18;18.35;;;11.90;;
41043;SDS011;51680;49.806;18.774;2022-09-30T10:29:25;16.88;;;11.57;;
41043;SDS011;51680;49.806;18.774;2022-09-30T10:32:28;16.13;;;11.93;;
41043;SDS011;51680;49.806;18.774;2022-09-30T10:35:32;16.70;;;12.32;;
41043;SDS011;51680;49.806;18.774;2022-09-30T10:38:34;17.43;;;11.77;;
41043;SDS011;51680;49.806;18.774;2022-09-30T10:41:37;19.63;;;13.85;;
41043;SDS011;51680;49.806;18.774;2022-09-30T10:44:40;74.57;;;13.60;;
41043;SDS011;51680;49.806;18.774;2022-09-30T10:47:45;17.83;;;11.70;;
41043;SDS011;51680;49.806;18.774;2022-09-30T10:50:52;15.95;;;11.35;;
41043;SDS011;51680;49.806;18.774;2022-09-30T10:53:56;15.38;;;11.40;;
41043;SDS011;51680;49.806;18.774;2022-09-30T10:56:59;19.13;;;12.93;;
41043;SDS011;51680;49.806;18.774;2022-09-30T11:00:06;19.95;;;13.88;;
41043;SDS011;51680;49.806;18.774;2022-09-30T11:03:15;16.38;;;11.38;;
41043;SDS011;51680;49.806;18.774;2022-09-30T11:06:22;17.83;;;11.30;;
41043;SDS011;51680;49.806;18.774;2022-09-30T11:09:25;17.67;;;11.35;;
41043;SDS011;51680;49.806;18.774;2022-09-30T11:12:36;16.65;;;11.52;;
41043;SDS011;51680;49.806;18.774;2022-09-30T11:15:44;15.23;;;10.20;;
41043;SDS011;51680;49.806;18.774;2022-09-30T11:18:58;15.68;;;10.23;;
41043;SDS011;51680;49.806;18.774;2022-09-30T11:22:11;15.30;;;9.80;;
41043;SDS011;51680;49.806;18.774;2022-09-30T11:25:31;15.63;;;9.70;;
41043;SDS011;51680;49.806;18.774;2022-09-30T11:28:46;14.40;;;10.18;;
41043;SDS011;51680;49.806;18.774;2022-09-30T11:31:57;14.50;;;10.05;;
41043;SDS011;51680;49.806;18.774;2022-09-30T11:35:15;15.40;;;10.85;;
41043;SDS011;51680;49.806;18.774;2022-09-30T11:38:35;15.77;;;10.93;;
41043;SDS011;51680;49.806;18.774;2022-09-30T11:41:48;15.25;;;10.00;;
41043;SDS011;51680;49.806;18.774;2022-09-30T11:44:59;17.73;;;12.80;;
41043;SDS011;51680;49.806;18.774;2022-09-30T11:48:16;13.80;;;10.00;;
41043;SDS011;51680;49.806;18.774;2022-09-30T11:51:30;14.57;;;9.75;;
41043;SDS011;51680;49.806;18.774;2022-09-30T11:54:45;17.40;;;12.68;;
41043;SDS011;51680;49.806;18.774;2022-09-30T11:58:00;16.30;;;11.45;;
41043;SDS011;51680;49.806;18.774;2022-09-30T12:01:09;17.55;;;11.13;;
41043;SDS011;51680;49.806;18.774;2022-09-30T12:04:18;16.83;;;11.73;;
41043;SDS011;51680;49.806;18.774;2022-09-30T12:07:34;15.70;;;10.90;;
41043;SDS011;51680;49.806;18.774;2022-09-30T12:10:43;12.40;;;9.52;;
41043;SDS011;51680;49.806;18.774;2022-09-30T12:13:50;11.32;;;7.82;;
41043;SDS011;51680;49.806;18.774;2022-09-30T12:16:54;12.30;;;8.60;;
41043;SDS011;51680;49.806;18.774;2022-09-30T12:23:05;11.18;;;7.32;;
41043;SDS011;51680;49.806;18.774;2022-09-30T12:26:15;9.32;;;7.18;;
41043;SDS011;51680;49.806;18.774;2022-09-30T12:29:19;12.45;;;7.63;;
41043;SDS011;51680;49.806;18.774;2022-09-30T12:36:24;9.90;;;6.60;;
41043;SDS011;51680;49.806;18.774;2022-09-30T12:43:16;11.57;;;6.68;;
41043;SDS011;51680;49.806;18.774;2022-09-30T12:46:38;17.17;;;7.40;;
41043;SDS011;51680;49.806;18.774;2022-09-30T12:49:52;9.48;;;7.35;;
41043;SDS011;51680;49.806;18.774;2022-09-30T12:52:57;10.35;;;7.50;;
41043;SDS011;51680;49.806;18.774;2022-09-30T12:56:10;12.20;;;7.43;;
41043;SDS011;51680;49.806;18.774;2022-09-30T12:59:16;9.73;;;7.30;;
41043;SDS011;51680;49.806;18.774;2022-09-30T13:02:27;11.32;;;7.32;;
41043;SDS011;51680;49.806;18.774;2022-09-30T13:09:05;10.38;;;6.93;;
41043;SDS011;51680;49.806;18.774;2022-09-30T13:12:23;10.68;;;7.40;;
41043;SDS011;51680;49.806;18.774;2022-09-30T13:15:40;11.50;;;7.60;;
41043;SDS011;51680;49.806;18.774;2022-09-30T13:18:59;12.80;;;7.90;;
41043;SDS011;51680;49.806;18.774;2022-09-30T13:25:51;13.18;;;9.32;;
41043;SDS011;51680;49.806;18.774;2022-09-30T13:28:54;13.90;;;9.63;;
41043;SDS011;51680;49.806;18.774;2022-09-30T13:32:35;15.45;;;11.25;;
41043;SDS011;51680;49.806;18.774;2022-09-30T13:35:47;21.30;;;11.68;;
41043;SDS011;51680;49.806;18.774;2022-09-30T13:39:04;16.13;;;11.80;;
41043;SDS011;51680;49.806;18.774;2022-09-30T13:42:10;22.60;;;12.15;;
41043;SDS011;51680;49.806;18.774;2022-09-30T13:45:20;19.58;;;13.25;;
41043;SDS011;51680;49.806;18.774;2022-09-30T13:48:31;19.42;;;14.15;;
41043;SDS011;51680;49.806;18.774;2022-09-30T13:51:35;23.10;;;14.50;;
41043;SDS011;51680;49.806;18.774;2022-09-30T13:54:39;22.13;;;15.05;;
41043;SDS011;51680;49.806;18.774;2022-09-30T13:57:49;24.08;;;15.32;;
41043;SDS011;51680;49.806;18.774;2022-09-30T14:04:25;20.52;;;14.43;;
41043;SDS011;51680;49.806;18.774;2022-09-30T14:08:13;23.92;;;14.13;;
41043;SDS011;51680;49.806;18.774;2022-09-30T14:15:21;19.15;;;13.75;;
41043;SDS011;51680;49.806;18.774;2022-09-30T14:18:45;19.42;;;13.80;;
41043;SDS011;51680;49.806;18.774;2022-09-30T14:22:06;21.98;;;14.40;;
41043;SDS011;51680;49.806;18.774;2022-09-30T14:28:14;20.75;;;13.50;;
41043;SDS011;51680;49.806;18.774;2022-09-30T14:31:23;21.00;;;13.38;;
41043;SDS011;51680;49.806;18.774;2022-09-30T14:34:27;19.40;;;13.60;;
41043;SDS011;51680;49.806;18.774;2022-09-30T14:37:34;20.77;;;14.48;;
41043;SDS011;51680;49.806;18.774;2022-09-30T14:40:38;19.70;;;14.10;;
41043;SDS011;51680;49.806;18.774;2022-09-30T14:43:42;20.23;;;13.77;;
41043;SDS011;51680;49.806;18.774;2022-09-30T14:47:07;24.80;;;15.13;;
41043;SDS011;51680;49.806;18.774;2022-09-30T14:50:10;25.52;;;15.57;;
41043;SDS011;51680;49.806;18.774;2022-09-30T14:53:23;24.30;;;14.70;;
41043;SDS011;51680;49.806;18.774;2022-09-30T14:56:28;22.50;;;14.93;;
41043;SDS011;51680;49.806;18.774;2022-09-30T14:59:31;24.48;;;16.88;;
41043;SDS011;51680;49.806;18.774;2022-09-30T15:02:34;25.35;;;17.13;;
41043;SDS011;51680;49.806;18.774;2022-09-30T15:05:45;35.33;;;24.40;;
41043;SDS011;51680;49.806;18.774;2022-09-30T15:08:47;25.15;;;16.25;;
41043;SDS011;51680;49.806;18.774;2022-09-30T15:11:50;24.13;;;16.45;;
41043;SDS011;51680;49.806;18.774;2022-09-30T15:14:53;24.35;;;16.23;;
41043;SDS011;51680;49.806;18.774;2022-09-30T15:17:57;25.80;;;17.55;;
41043;SDS011;51680;49.806;18.774;2022-09-30T15:21:03;28.55;;;18.50;;
41043;SDS011;51680;49.806;18.774;2022-09-30T15:24:09;32.13;;;21.15;;
41043;SDS011;51680;49.806;18.774;2022-09-30T15:27:13;35.15;;;20.90;;
41043;SDS011;51680;49.806;18.774;2022-09-30T15:30:22;29.15;;;19.10;;
41043;SDS011;51680;49.806;18.774;2022-09-30T15:33:26;33.67;;;20.30;;
41043;SDS011;51680;49.806;18.774;2022-09-30T15:36:32;29.05;;;19.05;;
41043;SDS011;51680;49.806;18.774;2022-09-30T15:39:38;32.22;;;19.92;;
41043;SDS011;51680;49.806;18.774;2022-09-30T15:43:00;34.28;;;20.83;;
41043;SDS011;51680;49.806;18.774;2022-09-30T15:49:31;32.03;;;20.77;;
41043;SDS011;51680;49.806;18.774;2022-09-30T15:52:44;45.88;;;25.88;;
41043;SDS011;51680;49.806;18.774;2022-09-30T15:55:46;33.08;;;22.10;;
41043;SDS011;51680;49.806;18.774;2022-09-30T15:58:55;40.22;;;27.10;;
41043;SDS011;51680;49.806;18.774;2022-09-30T16:01:58;33.97;;;21.50;;
41043;SDS011;51680;49.806;18.774;2022-09-30T16:05:00;32.78;;;21.13;;
41043;SDS011;51680;49.806;18.774;2022-09-30T16:08:07;37.80;;;25.30;;
41043;SDS011;51680;49.806;18.774;2022-09-30T16:11:16;33.92;;;21.55;;
41043;SDS011;51680;49.806;18.774;2022-09-30T16:14:20;31.08;;;21.85;;
41043;SDS011;51680;49.806;18.774;2022-09-30T16:17:26;34.67;;;21.35;;
41043;SDS011;51680;49.806;18.774;2022-09-30T16:20:29;30.10;;;18.23;;
41043;SDS011;51680;49.806;18.774;2022-09-30T16:23:35;26.73;;;18.13;;
41043;SDS011;51680;49.806;18.774;2022-09-30T16:26:38;28.98;;;18.48;;
41043;SDS011;51680;49.806;18.774;2022-09-30T16:29:44;34.72;;;20.10;;
41043;SDS011;51680;49.806;18.774;2022-09-30T16:32:46;30.80;;;20.33;;
41043;SDS011;51680;49.806;18.774;2022-09-30T16:35:51;28.23;;;18.42;;
41043;SDS011;51680;49.806;18.774;2022-09-30T16:38:54;35.65;;;20.02;;
41043;SDS011;51680;49.806;18.774;2022-09-30T16:41:55;28.95;;;19.52;;
41043;SDS011;51680;49.806;18.774;2022-09-30T16:44:57;29.35;;;19.20;;
41043;SDS011;51680;49.806;18.774;2022-09-30T16:48:00;28.95;;;18.90;;
41043;SDS011;51680;49.806;18.774;2022-09-30T16:51:03;33.25;;;20.73;;
41043;SDS011;51680;49.806;18.774;2022-09-30T16:54:12;32.20;;;20.38;;
41043;SDS011;51680;49.806;18.774;2022-09-30T16:57:14;35.65;;;20.35;;
41043;SDS011;51680;49.806;18.774;2022-09-30T17:00:16;44.58;;;26.75;;
41043;SDS011;51680;49.806;18.774;2022-09-30T17:03:18;49.72;;;28.75;;
41043;SDS011;51680;49.806;18.774;2022-09-30T17:06:24;58.03;;;32.83;;
41043;SDS011;51680;49.806;18.774;2022-09-30T17:09:29;49.08;;;28.77;;
41043;SDS011;51680;49.806;18.774;2022-09-30T17:12:31;34.13;;;22.53;;
41043;SDS011;51680;49.806;18.774;2022-09-30T17:15:33;48.95;;;28.02;;
41043;SDS011;51680;49.806;18.774;2022-09-30T17:18:36;42.83;;;25.17;;
41043;SDS011;51680;49.806;18.774;2022-09-30T17:21:39;45.67;;;26.10;;
41043;SDS011;51680;49.806;18.774;2022-09-30T17:24:42;38.30;;;23.65;;
41043;SDS011;51680;49.806;18.774;2022-09-30T17:28:03;37.88;;;23.52;;
41043;SDS011;51680;49.806;18.774;2022-09-30T17:31:06;74.43;;;37.37;;
41043;SDS011;51680;49.806;18.774;2022-09-30T17:34:09;57.03;;;33.53;;
41043;SDS011;51680;49.806;18.774;2022-09-30T17:37:11;37.78;;;23.05;;
41043;SDS011;51680;49.806;18.774;2022-09-30T17:40:15;35.45;;;22.55;;
41043;SDS011;51680;49.806;18.774;2022-09-30T17:43:34;40.42;;;23.83;;
41043;SDS011;51680;49.806;18.774;2022-09-30T17:46:40;34.33;;;22.80;;
41043;SDS011;51680;49.806;18.774;2022-09-30T17:49:43;40.17;;;23.40;;
41043;SDS011;51680;49.806;18.774;2022-09-30T17:53:04;39.83;;;26.30;;
41043;SDS011;51680;49.806;18.774;2022-09-30T17:56:18;30.95;;;21.63;;
41043;SDS011;51680;49.806;18.774;2022-09-30T17:59:21;32.40;;;21.33;;
41043;SDS011;51680;49.806;18.774;2022-09-30T18:02:26;42.95;;;31.30;;
41043;SDS011;51680;49.806;18.774;2022-09-30T18:05:28;33.40;;;23.75;;
41043;SDS011;51680;49.806;18.774;2022-09-30T18:08:31;34.05;;;21.13;;
41043;SDS011;51680;49.806;18.774;2022-09-30T18:11:35;34.72;;;22.88;;
41043;SDS011;51680;49.806;18.774;2022-09-30T18:14:36;33.63;;;23.33;;
41043;SDS011;51680;49.806;18.774;2022-09-30T18:17:38;50.58;;;37.45;;
41043;SDS011;51680;49.806;18.774;2022-09-30T18:20:41;44.70;;;31.83;;
41043;SDS011;51680;49.806;18.774;2022-09-30T18:23:44;45.70;;;31.67;;
41043;SDS011;51680;49.806;18.774;2022-09-30T18:26:47;41.28;;;28.88;;
41043;SDS011;51680;49.806;18.774;2022-09-30T18:29:48;41.80;;;25.45;;
41043;SDS011;51680;49.806;18.774;2022-09-30T18:32:50;40.03;;;24.55;;
41043;SDS011;51680;49.806;18.774;2022-09-30T18:35:53;37.65;;;26.23;;
41043;SDS011;51680;49.806;18.774;2022-09-30T18:38:57;49.00;;;32.85;;
41043;SDS011;51680;49.806;18.774;2022-09-30T18:42:01;42.53;;;28.13;;